Aeroporto :
LOGIN :

Iscrizione | Disclaimer

   EN    FR    IT 

 










Sommario :    VFR   VFR Marginale   IFR   IFR Intensivo   IFR Molto Intensivo
Visibilità : 
Base nubi : 
>= 8 km
>= 3000ft
5 / 8 km
1000 / 3000 ft
1500m / 5 km
500 / 1000 ft
800 / 1500m
200 / 500 ft
< 800m
< 200 ft
Simboli :   Temporali  Nebbia  Neve Forte  Precipitazioni Forti  Vento > 20 kt
SIGMETs :   Varie  Temporali  Ghiacco  Turbolenza  Onda orograficha  Ceneri Vulcaniche






- Altitudine del aeroporto : 79 ft
- Codice IATA : SPU


LDSP - Split

ULTIMO METAR :
  • 010400Z 05003KT 360V080 9999 FEW030 13/10 Q1010 NOSIG

METARs OBSOLETI :
  • 010330Z AUTO 32006KT 300V060 CAVOK 15/11 Q1010 NOSIG
  • 010300Z AUTO 32007KT CAVOK 15/11 Q1010 NOSIG
  • 010230Z AUTO 33004KT 300V090 9999 FEW031/// 14/11 Q1010 NOSIG
  • 010200Z AUTO 32008KT CAVOK 16/11 Q1010 NOSIG
  • 010130Z AUTO 32008KT CAVOK 15/11 Q1011

TAF TAF LDSP
Valido dal 01 a 00 ore il 02 a 00 ore UTC


302325Z 0100/0200 31008KT CAVOK TX21/0112Z TN13/0104Z
BECMG 0111/0113 23009KT
BECMG 0116/0118 VRB02KT



MetMap, La meteo Aeronautica in un colpo d'occhio ! - Copyright ORBIFLY Dicembre 2007 - Disclaimer

ORBIFLY MET'MAP TEAM :

Programmazione e sviluppo : Alexandra Zaïnal
Concezione : Baudouin d'Aumeries
Aiuto per la programmazione : Marc-Olivier Méhu
Supporto tecnico e logistico : Manuel Goepfert
Aiuto per la traduzione : Arnaldo La Scala

Contatto : metmap@orbifly.com




FONTI E CREDITI :

   NOAA